Time;durP1;ratioP1;P1;durP2;ratioP2;P2;SDS_P1;SDS_P2;PMS_P1;PMS_P2;Temp;Humidity;BMP_temperature;BMP_pressure;BME280_temperature;BME280_humidity;BME280_pressure;Samples;Min_cycle;Max_cycle;Signal;HPM_P1;HPM_P2
2021/09/19 00:01:03;;;;;;;5.50;5.00;;;13.80;99.90;;;;;;5015771;28;20206;-73
2021/09/19 00:03:29;;;;;;;5.43;4.90;;;13.80;99.90;;;;;;5014575;28;20241;-73
2021/09/19 00:05:54;;;;;;;7.67;5.20;;;13.80;99.90;;;;;;5014205;28;20187;-73
2021/09/19 00:08:20;;;;;;;6.13;5.33;;;13.80;99.90;;;;;;5014289;28;20249;-73
2021/09/19 00:10:45;;;;;;;5.50;5.00;;;13.70;99.90;;;;;;4997623;28;20210;-73
2021/09/19 00:13:11;;;;;;;8.43;4.80;;;13.80;99.90;;;;;;5013926;28;20274;-73
2021/09/19 00:15:37;;;;;;;7.17;5.07;;;13.80;99.90;;;;;;4981523;28;20267;-73
2021/09/19 00:18:03;;;;;;;5.27;4.77;;;13.70;99.90;;;;;;4997760;28;20171;-73
2021/09/19 00:20:28;;;;;;;5.47;4.97;;;13.70;99.90;;;;;;4997555;28;20199;-73
2021/09/19 00:22:54;;;;;;;6.20;4.97;;;13.70;99.90;;;;;;4997711;28;20643;-73
2021/09/19 00:25:19;;;;;;;6.57;5.30;;;13.80;99.90;;;;;;4997474;28;20204;-73
2021/09/19 00:27:45;;;;;;;6.47;5.30;;;13.70;99.90;;;;;;4997413;28;20171;-73
2021/09/19 00:30:11;;;;;;;7.57;5.60;;;13.70;99.90;;;;;;5013543;28;20275;-73
2021/09/19 00:32:36;;;;;;;5.93;5.33;;;13.60;99.90;;;;;;5013861;28;20290;-73
2021/09/19 00:35:02;;;;;;;7.50;5.30;;;13.70;99.90;;;;;;5013700;28;20192;-73
2021/09/19 00:37:28;;;;;;;6.57;5.50;;;13.60;99.90;;;;;;4997397;28;20179;-73
2021/09/19 00:39:54;;;;;;;9.87;5.50;;;13.60;99.90;;;;;;5013399;28;20168;-73
2021/09/19 00:42:19;;;;;;;6.20;5.43;;;13.60;99.90;;;;;;5013297;28;20686;-73
2021/09/19 00:44:45;;;;;;;7.17;6.00;;;13.50;99.90;;;;;;4981161;28;20195;-73
2021/09/19 00:47:10;;;;;;;6.10;5.47;;;13.50;99.90;;;;;;5013454;28;20175;-73
2021/09/19 00:49:36;;;;;;;6.33;5.73;;;13.60;99.90;;;;;;5013278;28;20176;-73
2021/09/19 00:52:02;;;;;;;7.07;6.47;;;13.60;99.90;;;;;;4997026;28;20199;-73
2021/09/19 00:54:28;;;;;;;9.30;6.37;;;13.60;99.90;;;;;;4997046;28;20199;-73
2021/09/19 00:56:54;;;;;;;7.00;6.30;;;13.50;99.90;;;;;;4980735;28;20202;-73
2021/09/19 00:59:20;;;;;;;7.53;6.77;;;13.50;99.90;;;;;;4996864;28;20175;-73
2021/09/19 01:01:51;;;;;;;6.40;5.80;;;13.50;99.90;;;;;;5013314;28;20183;-73
2021/09/19 01:04:16;;;;;;;6.70;6.03;;;13.50;99.90;;;;;;4981067;28;20219;-73
2021/09/19 01:06:42;;;;;;;6.70;6.00;;;13.50;99.90;;;;;;4980557;28;20643;-73
2021/09/19 01:09:08;;;;;;;6.57;5.87;;;13.50;99.90;;;;;;4996483;28;20167;-73
2021/09/19 01:11:33;;;;;;;6.40;5.80;;;13.40;99.90;;;;;;5014108;28;20218;-73
2021/09/19 01:13:59;;;;;;;7.10;5.73;;;13.40;99.90;;;;;;5014043;28;20207;-73
2021/09/19 01:16:26;;;;;;;7.43;5.87;;;13.40;99.90;;;;;;4996742;28;20194;-73
2021/09/19 01:18:51;;;;;;;8.63;6.30;;;13.40;99.90;;;;;;4996508;28;20172;-73
2021/09/19 01:21:17;;;;;;;6.27;5.67;;;13.40;99.90;;;;;;4996591;28;20241;-73
2021/09/19 01:23:59;;;;;;;6.60;5.83;;;13.40;99.90;;;;;;5012979;28;20210;-73
2021/09/19 01:26:25;;;;;;;6.03;5.43;;;13.40;99.90;;;;;;4997133;28;20175;-73
2021/09/19 01:28:51;;;;;;;6.97;5.40;;;13.40;99.90;;;;;;4996210;28;20186;-73
2021/09/19 01:31:16;;;;;;;6.70;5.50;;;13.40;99.90;;;;;;5014005;28;20214;-73
2021/09/19 01:33:42;;;;;;;8.40;5.73;;;13.40;99.90;;;;;;4996311;28;20772;-73
2021/09/19 01:36:09;;;;;;;6.27;5.43;;;13.30;99.90;;;;;;4980135;28;20262;-73
2021/09/19 01:38:34;;;;;;;6.50;5.80;;;13.30;99.90;;;;;;4980024;28;20605;-73
2021/09/19 01:41:00;;;;;;;6.00;5.00;;;13.40;99.90;;;;;;5012289;28;20219;-73
2021/09/19 01:43:25;;;;;;;6.07;5.10;;;13.40;99.90;;;;;;5012576;28;20294;-73
2021/09/19 01:45:51;;;;;;;9.33;5.83;;;13.30;99.90;;;;;;5012567;28;20266;-73
2021/09/19 01:48:16;;;;;;;6.43;5.33;;;13.30;99.90;;;;;;4995479;28;20210;-73
2021/09/19 01:50:42;;;;;;;6.03;5.23;;;13.30;99.90;;;;;;4979615;28;20191;-73
2021/09/19 01:53:07;;;;;;;6.83;5.23;;;13.20;99.90;;;;;;5011938;28;20671;-75
2021/09/19 01:55:33;;;;;;;5.73;5.20;;;13.20;99.90;;;;;;4995943;28;20180;-74
2021/09/19 01:57:58;;;;;;;5.87;5.10;;;13.20;99.90;;;;;;5012231;28;20262;-75
2021/09/19 02:00:25;;;;;;;6.77;5.03;;;13.20;99.90;;;;;;5013113;28;20193;-74
2021/09/19 02:02:51;;;;;;;6.33;5.17;;;13.20;99.90;;;;;;4979740;28;20269;-74
2021/09/19 02:05:16;;;;;;;6.93;5.33;;;13.20;99.90;;;;;;5013144;28;20202;-74
2021/09/19 02:07:42;;;;;;;5.53;4.90;;;13.20;99.90;;;;;;5011904;28;20187;-74
2021/09/19 02:10:10;;;;;;;5.67;4.80;;;13.10;99.90;;;;;;5012916;28;20258;-74
2021/09/19 02:12:36;;;;;;;6.20;5.40;;;13.10;99.90;;;;;;4995698;28;20281;-74
2021/09/19 02:15:03;;;;;;;5.93;5.00;;;13.10;99.90;;;;;;5011845;28;20194;-74
2021/09/19 02:17:29;;;;;;;5.43;4.50;;;13.10;99.90;;;;;;4995390;28;20178;-74
2021/09/19 02:19:54;;;;;;;5.47;4.97;;;13.10;99.90;;;;;;4995266;28;20179;-74
2021/09/19 02:22:20;;;;;;;5.37;4.87;;;13.00;99.90;;;;;;5011557;28;20191;-74
2021/09/19 02:24:45;;;;;;;6.10;4.87;;;13.00;99.90;;;;;;5012696;28;20196;-74
2021/09/19 02:27:11;;;;;;;5.13;4.63;;;13.00;99.90;;;;;;4995276;28;20267;-74
2021/09/19 02:29:36;;;;;;;7.67;4.83;;;13.00;99.90;;;;;;4995172;28;20266;-74
2021/09/19 02:32:03;;;;;;;5.70;4.57;;;13.00;99.90;;;;;;4995175;28;20270;-74
2021/09/19 02:34:29;;;;;;;4.67;4.27;;;13.00;99.90;;;;;;4995350;28;20685;-74
2021/09/19 02:36:54;;;;;;;4.63;4.17;;;13.00;99.90;;;;;;4995114;28;20167;-74
2021/09/19 02:39:20;;;;;;;5.40;4.90;;;12.90;99.90;;;;;;4978619;28;20179;-74
2021/09/19 02:41:45;;;;;;;6.83;4.73;;;12.90;99.90;;;;;;4995012;28;20266;-74
2021/09/19 02:44:11;;;;;;;7.33;5.07;;;12.90;99.90;;;;;;5012513;28;20241;-75
2021/09/19 02:46:36;;;;;;;5.33;4.70;;;12.90;99.90;;;;;;4995144;28;20449;-74
2021/09/19 02:49:02;;;;;;;4.97;4.37;;;12.90;99.90;;;;;;4994653;28;20182;-74
2021/09/19 02:51:28;;;;;;;4.87;4.40;;;12.90;99.90;;;;;;5010522;28;20180;-74
2021/09/19 02:53:53;;;;;;;4.57;4.17;;;12.90;99.90;;;;;;4978423;28;20211;-74
2021/09/19 02:56:19;;;;;;;5.23;4.50;;;12.90;99.90;;;;;;4994732;28;20175;-74
2021/09/19 02:58:44;;;;;;;4.93;4.40;;;12.90;99.90;;;;;;5010446;28;20262;-74
2021/09/19 03:01:10;;;;;;;4.70;4.17;;;12.90;99.90;;;;;;4994347;28;20224;-74
2021/09/19 03:03:35;;;;;;;5.10;4.60;;;12.90;99.90;;;;;;4984687;28;20211;-74
2021/09/19 03:06:01;;;;;;;4.20;3.80;;;12.90;99.90;;;;;;4992599;28;20635;-74
2021/09/19 03:08:26;;;;;;;8.30;4.83;;;12.90;99.90;;;;;;4975315;28;20180;-74
2021/09/19 03:10:52;;;;;;;4.57;4.17;;;12.90;99.90;;;;;;4992471;28;20211;-74
2021/09/19 03:13:17;;;;;;;4.90;3.73;;;12.90;99.90;;;;;;4975093;28;20207;-74
2021/09/19 03:15:43;;;;;;;4.37;3.97;;;12.90;99.90;;;;;;4991357;28;20540;-74
2021/09/19 03:18:08;;;;;;;4.80;3.93;;;12.80;99.90;;;;;;4991391;28;20176;-74
2021/09/19 03:20:34;;;;;;;7.17;4.17;;;12.80;99.90;;;;;;4990864;28;20640;-74
2021/09/19 03:23:00;;;;;;;4.20;3.80;;;12.80;99.90;;;;;;4975136;28;20319;-74
2021/09/19 03:25:25;;;;;;;4.60;4.20;;;12.80;99.90;;;;;;4975078;28;20172;-74
2021/09/19 03:27:51;;;;;;;4.20;3.80;;;12.80;99.90;;;;;;4975159;28;20183;-74
2021/09/19 03:30:16;;;;;;;4.43;3.70;;;12.80;99.90;;;;;;4974875;28;20632;-74
2021/09/19 03:32:42;;;;;;;5.73;3.83;;;12.70;99.90;;;;;;4975007;28;20563;-74
2021/09/19 03:35:08;;;;;;;4.37;3.63;;;12.70;99.90;;;;;;4990950;28;20192;-74
2021/09/19 03:37:34;;;;;;;3.93;3.60;;;12.70;99.90;;;;;;4991214;28;20296;-74
2021/09/19 03:39:59;;;;;;;4.83;3.67;;;12.70;99.90;;;;;;4958595;28;20263;-74
2021/09/19 03:42:25;;;;;;;4.67;3.70;;;12.70;99.90;;;;;;4975065;28;20195;-74
2021/09/19 03:44:50;;;;;;;3.97;3.57;;;12.70;99.90;;;;;;4991165;28;20196;-74
2021/09/19 03:47:17;;;;;;;3.57;3.23;;;12.70;99.90;;;;;;4991129;28;20177;-75
2021/09/19 03:49:42;;;;;;;3.40;3.10;;;12.70;99.90;;;;;;4974770;28;20179;-74
2021/09/19 03:52:08;;;;;;;4.97;3.60;;;12.70;99.90;;;;;;4974752;28;20204;-74
2021/09/19 03:54:33;;;;;;;4.83;3.47;;;12.70;99.90;;;;;;4991390;28;20299;-74
2021/09/19 03:57:01;;;;;;;5.53;3.50;;;12.70;99.90;;;;;;4990997;28;20176;-74
2021/09/19 03:59:26;;;;;;;5.57;3.20;;;12.70;99.90;;;;;;4990840;28;20251;-74
2021/09/19 04:01:52;;;;;;;3.90;3.50;;;12.70;99.90;;;;;;4974808;28;20648;-75
2021/09/19 04:04:17;;;;;;;3.73;3.33;;;12.70;99.90;;;;;;4990866;28;20198;-74
2021/09/19 04:06:43;;;;;;;3.87;3.30;;;12.70;99.90;;;;;;4990978;28;20200;-74
2021/09/19 04:09:08;;;;;;;3.90;3.00;;;12.70;99.90;;;;;;4974583;28;20403;-74
2021/09/19 04:11:34;;;;;;;5.70;3.73;;;12.70;99.90;;;;;;4994257;28;20234;-74
2021/09/19 04:13:59;;;;;;;4.63;3.43;;;12.80;99.90;;;;;;4994479;28;20215;-74
2021/09/19 04:16:25;;;;;;;4.17;3.20;;;12.80;99.90;;;;;;4996185;28;20177;-74
2021/09/19 04:18:50;;;;;;;4.70;3.17;;;12.80;99.90;;;;;;4994259;28;20179;-75
2021/09/19 04:21:16;;;;;;;4.30;3.10;;;12.80;99.90;;;;;;4994420;28;20191;-74
2021/09/19 04:23:41;;;;;;;3.50;3.20;;;12.80;99.90;;;;;;4994296;28;20200;-74
2021/09/19 04:26:07;;;;;;;4.23;3.50;;;12.90;99.90;;;;;;4995487;28;20184;-74
2021/09/19 04:28:32;;;;;;;3.60;3.13;;;12.90;99.90;;;;;;4994275;28;20190;-74
2021/09/19 04:30:58;;;;;;;3.70;3.00;;;13.00;99.90;;;;;;4977825;28;20176;-74
2021/09/19 04:33:23;;;;;;;3.50;2.70;;;13.00;99.90;;;;;;4977759;28;20239;-74
2021/09/19 04:35:49;;;;;;;4.10;3.17;;;13.10;99.90;;;;;;4978175;28;20215;-74
2021/09/19 04:38:15;;;;;;;5.50;3.40;;;13.10;99.90;;;;;;4995232;28;20183;-75
2021/09/19 04:40:40;;;;;;;3.80;3.30;;;13.20;99.90;;;;;;4977687;28;20176;-74
2021/09/19 04:43:11;;;;;;;3.50;3.20;;;13.20;99.90;;;;;;4977812;28;20264;-74
2021/09/19 04:45:37;;;;;;;3.60;3.27;;;13.30;99.90;;;;;;4995158;28;20172;-74
2021/09/19 04:48:03;;;;;;;3.77;3.03;;;13.30;99.90;;;;;;4993845;28;20180;-74
2021/09/19 04:50:28;;;;;;;3.00;2.70;;;13.30;99.90;;;;;;4993912;28;20180;-74
2021/09/19 04:52:54;;;;;;;4.43;2.87;;;13.30;99.90;;;;;;4994855;28;20663;-74
2021/09/19 04:55:19;;;;;;;4.10;2.90;;;13.30;99.90;;;;;;4977391;28;20207;-74
2021/09/19 04:57:45;;;;;;;3.00;2.70;;;13.40;99.90;;;;;;4977670;28;20251;-73
2021/09/19 05:00:11;;;;;;;4.30;3.00;;;13.40;99.90;;;;;;4993510;28;20176;-73
2021/09/19 05:02:36;;;;;;;3.67;2.77;;;13.50;99.90;;;;;;4994808;28;20180;-72
2021/09/19 05:05:02;;;;;;;4.67;2.90;;;13.50;99.90;;;;;;4993548;28;20227;-73
2021/09/19 05:07:27;;;;;;;3.43;2.83;;;13.50;99.90;;;;;;4977281;28;20177;-72
2021/09/19 05:09:53;;;;;;;3.67;3.27;;;13.50;99.90;;;;;;4960995;28;20176;-73
2021/09/19 05:12:19;;;;;;;4.13;3.17;;;13.60;99.90;;;;;;4993439;28;20226;-72
2021/09/19 05:14:44;;;;;;;4.03;3.40;;;13.60;99.90;;;;;;4977232;28;20664;-72
2021/09/19 05:17:10;;;;;;;3.70;3.07;;;13.60;99.90;;;;;;4993329;28;20180;-73
2021/09/19 05:19:35;;;;;;;3.40;2.90;;;13.70;99.90;;;;;;4993017;28;20188;-73
2021/09/19 05:22:01;;;;;;;5.10;3.20;;;13.70;99.90;;;;;;4992433;28;20197;-73
2021/09/19 05:24:26;;;;;;;4.27;3.00;;;13.70;99.90;;;;;;4994310;28;20663;-73
2021/09/19 05:26:52;;;;;;;4.20;3.00;;;13.80;99.90;;;;;;4993239;28;20249;-73
2021/09/19 05:29:17;;;;;;;3.50;3.03;;;13.70;99.90;;;;;;4994158;28;20172;-73
2021/09/19 05:31:43;;;;;;;4.10;3.10;;;13.80;99.90;;;;;;4976972;28;20184;-73
2021/09/19 05:34:08;;;;;;;4.13;2.87;;;13.80;99.90;;;;;;4976641;28;20223;-73
2021/09/19 05:36:34;;;;;;;4.03;3.30;;;13.80;99.90;;;;;;4992966;28;20172;-73
2021/09/19 05:39:00;;;;;;;4.30;3.13;;;13.80;99.90;;;;;;4976618;28;20168;-73
2021/09/19 05:41:25;;;;;;;3.37;3.07;;;13.90;99.90;;;;;;4994155;28;20543;-72
2021/09/19 05:43:51;;;;;;;4.30;3.23;;;13.80;99.90;;;;;;4992881;28;20215;-73
2021/09/19 05:46:17;;;;;;;4.07;2.77;;;13.90;99.90;;;;;;4994089;28;20184;-73
2021/09/19 05:48:43;;;;;;;4.80;3.33;;;13.90;99.90;;;;;;4992733;28;20647;-73
2021/09/19 05:51:09;;;;;;;4.53;3.03;;;13.90;99.90;;;;;;4992741;28;20266;-73
2021/09/19 05:53:35;;;;;;;3.37;3.03;;;13.90;99.90;;;;;;4991877;28;20222;-73
2021/09/19 05:56:00;;;;;;;4.20;3.30;;;13.90;99.90;;;;;;4980700;28;20184;-73
2021/09/19 05:58:26;;;;;;;5.30;3.03;;;14.00;99.90;;;;;;4992605;28;20185;-73
2021/09/19 06:00:51;;;;;;;3.73;3.07;;;14.00;99.90;;;;;;4999901;28;20176;-73
2021/09/19 06:03:17;;;;;;;5.90;3.23;;;14.00;99.90;;;;;;5005009;28;20263;-73
2021/09/19 06:05:42;;;;;;;4.23;2.93;;;14.10;99.90;;;;;;5012929;28;20266;-73
2021/09/19 06:08:08;;;;;;;3.87;2.97;;;14.10;99.90;;;;;;5012038;28;20175;-73
2021/09/19 06:10:33;;;;;;;3.10;2.80;;;14.10;99.90;;;;;;4994988;28;20191;-73
2021/09/19 06:12:59;;;;;;;3.90;2.63;;;14.20;99.90;;;;;;5012989;28;20206;-73
2021/09/19 06:15:24;;;;;;;3.13;2.70;;;14.20;99.90;;;;;;5011940;28;20172;-73
2021/09/19 06:17:50;;;;;;;4.67;3.00;;;14.20;99.90;;;;;;5011844;28;20647;-73
2021/09/19 06:20:16;;;;;;;4.43;2.97;;;14.30;99.90;;;;;;5011667;28;20762;-73
2021/09/19 06:22:41;;;;;;;5.63;2.93;;;14.30;99.90;;;;;;5011839;28;20184;-73
2021/09/19 06:25:07;;;;;;;4.80;3.30;;;14.30;99.90;;;;;;5011773;28;20214;-74
2021/09/19 06:27:32;;;;;;;4.77;3.00;;;14.30;99.90;;;;;;5011685;28;20183;-73
2021/09/19 06:29:58;;;;;;;2.97;2.67;;;14.30;99.90;;;;;;5011431;28;20175;-73
2021/09/19 06:32:23;;;;;;;4.00;2.90;;;14.30;99.90;;;;;;5011477;28;20200;-73
2021/09/19 06:34:49;;;;;;;5.93;3.47;;;14.40;99.90;;;;;;4995019;28;20202;-73
2021/09/19 06:37:14;;;;;;;5.63;3.10;;;14.40;99.90;;;;;;5011564;28;20253;-73
2021/09/19 06:39:40;;;;;;;4.70;3.10;;;14.50;99.90;;;;;;4994949;28;20179;-81
2021/09/19 06:42:06;;;;;;;4.30;3.17;;;14.50;99.90;;;;;;4980002;28;20175;-81
2021/09/19 06:44:31;;;;;;;4.43;3.13;;;14.50;99.90;;;;;;4999411;28;20571;-81
2021/09/19 06:46:57;;;;;;;4.77;3.20;;;14.50;99.90;;;;;;4982607;28;20189;-82
2021/09/19 06:49:24;;;;;;;5.43;3.27;;;14.60;99.90;;;;;;4981089;28;20188;-77
2021/09/19 06:51:50;;;;;;;5.90;3.70;;;14.60;99.90;;;;;;4996266;28;20283;-77
2021/09/19 06:54:15;;;;;;;6.17;3.40;;;14.60;99.90;;;;;;4987858;28;20250;-78
2021/09/19 06:56:41;;;;;;;4.37;3.17;;;14.60;99.90;;;;;;4980054;28;20179;-79
2021/09/19 06:59:06;;;;;;;4.90;3.20;;;14.60;99.90;;;;;;4996305;28;20202;-79
2021/09/19 07:01:32;;;;;;;4.27;3.10;;;14.70;99.90;;;;;;4994461;28;20180;-77
2021/09/19 07:03:57;;;;;;;5.00;3.03;;;14.80;99.90;;;;;;4977441;28;20572;-77
2021/09/19 07:06:23;;;;;;;3.67;2.77;;;14.80;99.90;;;;;;4994596;28;20176;-79
2021/09/19 07:08:49;;;;;;;4.40;2.90;;;14.80;99.90;;;;;;4994906;28;20696;-78
2021/09/19 07:11:14;;;;;;;4.17;3.10;;;14.80;99.90;;;;;;4994526;28;20261;-78
2021/09/19 07:13:40;;;;;;;5.87;2.93;;;14.90;99.90;;;;;;4994024;28;20234;-79
2021/09/19 07:16:05;;;;;;;4.50;2.90;;;14.90;99.90;;;;;;4996212;28;20175;-79
2021/09/19 07:18:31;;;;;;;5.10;3.00;;;14.90;99.90;;;;;;4997746;28;20178;-79
2021/09/19 07:20:57;;;;;;;4.50;3.27;;;15.00;99.90;;;;;;4981004;28;20669;-79
2021/09/19 07:23:22;;;;;;;5.93;3.17;;;15.00;99.90;;;;;;4979875;28;20214;-78
2021/09/19 07:25:48;;;;;;;3.27;2.90;;;15.10;99.90;;;;;;4978853;28;20283;-77
2021/09/19 07:28:14;;;;;;;4.13;2.97;;;15.10;99.90;;;;;;4985348;28;20545;-83
2021/09/19 07:30:39;;;;;;;4.77;3.10;;;15.10;99.90;;;;;;4973075;28;20711;-78
2021/09/19 07:33:05;;;;;;;5.93;4.70;;;15.10;99.90;;;;;;4975591;28;20248;-77
2021/09/19 07:35:31;;;;;;;5.73;3.80;;;15.10;99.90;;;;;;4995378;28;20544;-77
2021/09/19 07:37:56;;;;;;;4.03;3.20;;;15.10;99.90;;;;;;4995705;28;20179;-79
2021/09/19 07:40:22;;;;;;;4.50;3.00;;;15.20;99.90;;;;;;5011817;28;20183;-77
2021/09/19 07:42:48;;;;;;;3.50;3.20;;;15.20;99.90;;;;;;4979020;28;20717;-77
2021/09/19 07:45:14;;;;;;;4.50;3.17;;;15.20;99.90;;;;;;4991986;28;20282;-80
2021/09/19 07:47:40;;;;;;;4.30;3.30;;;15.20;99.90;;;;;;4984488;28;20666;-80
2021/09/19 07:50:06;;;;;;;4.17;3.03;;;15.20;99.90;;;;;;4996782;28;20180;-78
2021/09/19 07:52:32;;;;;;;3.60;3.10;;;15.30;99.90;;;;;;4985575;28;20281;-82
2021/09/19 07:54:57;;;;;;;5.33;3.30;;;15.30;99.90;;;;;;4979367;28;20758;-82
2021/09/19 07:57:23;;;;;;;5.50;3.10;;;15.30;99.90;;;;;;4981086;28;20211;-81
2021/09/19 07:59:50;;;;;;;3.20;2.80;;;15.40;99.90;;;;;;5000095;28;20222;-80
2021/09/19 08:02:15;;;;;;;4.93;3.23;;;15.40;99.90;;;;;;4979768;28;20192;-77
2021/09/19 08:04:41;;;;;;;5.73;3.57;;;15.40;99.90;;;;;;4995814;28;20203;-78
2021/09/19 08:07:06;;;;;;;3.33;3.00;;;15.40;99.90;;;;;;4984485;28;20717;-80
2021/09/19 08:09:32;;;;;;;4.23;3.20;;;15.50;99.90;;;;;;5033573;28;20438;-80
2021/09/19 08:11:58;;;;;;;4.63;3.23;;;15.50;99.90;;;;;;5010777;28;20211;-81
2021/09/19 08:14:24;;;;;;;4.57;3.30;;;15.50;99.90;;;;;;4980404;28;20239;-81
2021/09/19 08:16:49;;;;;;;5.27;3.10;;;15.50;99.90;;;;;;4993701;28;20674;-82
2021/09/19 08:19:15;;;;;;;5.93;2.90;;;15.60;99.90;;;;;;4995626;28;20586;-80
2021/09/19 08:21:40;;;;;;;5.57;3.00;;;15.70;99.90;;;;;;5000052;28;20526;-80
2021/09/19 08:24:07;;;;;;;4.73;3.40;;;15.60;99.90;;;;;;4995103;28;20204;-82
2021/09/19 08:26:33;;;;;;;3.67;3.07;;;15.70;99.90;;;;;;5016383;28;20187;-82
2021/09/19 08:28:59;;;;;;;4.27;3.17;;;15.70;99.90;;;;;;5000632;28;20175;-82
2021/09/19 08:31:24;;;;;;;4.87;3.10;;;15.70;99.90;;;;;;4983764;28;20199;-80
2021/09/19 08:33:50;;;;;;;4.77;3.73;;;15.70;99.90;;;;;;5000496;28;20694;-82
2021/09/19 08:36:16;;;;;;;5.37;3.30;;;15.80;99.90;;;;;;5000540;28;20180;-79
2021/09/19 08:38:41;;;;;;;3.37;3.03;;;15.90;99.90;;;;;;5000624;28;20667;-80
2021/09/19 08:41:07;;;;;;;3.87;3.23;;;15.80;99.90;;;;;;4983825;28;20176;-81
2021/09/19 08:43:32;;;;;;;4.90;3.57;;;15.90;99.90;;;;;;4983577;28;20226;-80
2021/09/19 08:45:58;;;;;;;7.57;4.17;;;16.00;99.90;;;;;;5000782;28;20176;-80
2021/09/19 08:48:25;;;;;;;4.20;3.20;;;15.90;99.90;;;;;;4991011;28;20175;-79
2021/09/19 08:50:52;;;;;;;3.63;3.27;;;15.90;99.90;;;;;;4985480;28;20549;-81
2021/09/19 08:53:17;;;;;;;5.80;3.57;;;16.00;99.90;;;;;;4983139;28;20211;-79
2021/09/19 08:55:43;;;;;;;5.23;3.50;;;16.00;99.90;;;;;;5009209;28;20185;-79
2021/09/19 08:58:09;;;;;;;3.63;3.17;;;16.10;99.90;;;;;;4985490;28;20250;-80
2021/09/19 09:00:44;;;;;;;3.97;3.27;;;16.20;99.90;;;;;;4971427;28;20179;-79
2021/09/19 09:03:13;;;;;;;5.07;3.50;;;16.20;99.90;;;;;;4979735;28;20172;-79
2021/09/19 09:05:39;;;;;;;4.03;3.20;;;16.30;99.90;;;;;;4983900;28;20653;-80
2021/09/19 09:08:06;;;;;;;4.43;3.20;;;16.20;99.90;;;;;;4983862;28;20266;-80
2021/09/19 09:10:39;;;;;;;3.83;3.07;;;16.30;99.90;;;;;;4983026;28;20242;-81
2021/09/19 09:13:08;;;;;;;4.77;3.50;;;16.40;99.90;;;;;;4999373;28;20576;-82
2021/09/19 09:15:39;;;;;;;7.57;3.13;;;16.50;99.90;;;;;;4996809;28;20187;-80
2021/09/19 09:18:05;;;;;;;3.67;3.37;;;16.60;99.90;;;;;;4993162;28;20172;-80
2021/09/19 09:20:50;;;;;;;4.60;3.53;;;16.60;99.90;;;;;;4989284;28;20256;-80
2021/09/19 09:23:30;;;;;;;5.23;3.30;;;16.70;99.90;;;;;;5015137;28;20267;-80
2021/09/19 09:26:27;;;;;;;3.53;3.20;;;16.70;99.90;;;;;;5016062;28;20191;-80
2021/09/19 09:29:00;;;;;;;5.30;3.50;;;16.70;99.90;;;;;;5006108;28;20323;-79
2021/09/19 09:31:32;;;;;;;5.93;3.73;;;16.80;99.90;;;;;;4983376;28;20183;-79
2021/09/19 09:34:05;;;;;;;4.37;3.80;;;16.70;99.90;;;;;;5014880;28;20215;-79
2021/09/19 09:36:36;;;;;;;5.33;3.73;;;16.70;99.90;;;;;;4976367;28;20234;-79
2021/09/19 09:39:19;;;;;;;4.10;3.70;;;16.80;99.90;;;;;;4985039;28;20260;-79
2021/09/19 09:41:45;;;;;;;4.87;3.30;;;16.80;99.90;;;;;;4999658;28;20171;-79
2021/09/19 09:44:32;;;;;;;4.80;3.60;;;16.80;99.90;;;;;;4984121;28;20541;-78
2021/09/19 09:46:58;;;;;;;3.43;3.00;;;16.90;99.90;;;;;;5015206;28;20175;-78
2021/09/19 09:49:38;;;;;;;3.53;3.23;;;17.00;99.90;;;;;;5017483;28;20590;-78
2021/09/19 09:52:09;;;;;;;5.07;4.00;;;17.10;99.90;;;;;;4980224;28;20237;-79
2021/09/19 09:54:42;;;;;;;5.23;3.40;;;17.10;99.90;;;;;;5012074;28;20579;-79
2021/09/19 09:57:08;;;;;;;5.47;3.60;;;17.10;99.90;;;;;;4998536;28;20234;-74
2021/09/19 09:59:34;;;;;;;5.07;3.60;;;17.10;99.90;;;;;;4997978;28;20179;-78
2021/09/19 10:02:02;;;;;;;4.40;4.00;;;17.20;99.90;;;;;;4998299;28;20160;-79
2021/09/19 10:04:29;;;;;;;4.43;3.80;;;17.30;99.90;;;;;;4982421;28;20241;-79
2021/09/19 10:06:54;;;;;;;5.47;4.13;;;17.30;99.90;;;;;;4998118;28;20179;-78
2021/09/19 10:09:20;;;;;;;4.73;3.60;;;17.20;99.90;;;;;;4982555;28;20180;-78
2021/09/19 10:11:45;;;;;;;3.97;3.40;;;17.20;99.90;;;;;;5000159;28;20187;-79
2021/09/19 10:14:11;;;;;;;4.33;2.80;;;17.20;99.90;;;;;;4979388;28;20216;-80
2021/09/19 10:16:36;;;;;;;4.20;3.00;;;17.20;99.90;;;;;;5000419;28;20247;-78
2021/09/19 10:19:02;;;;;;;4.73;3.00;;;17.30;99.90;;;;;;4999030;28;20198;-78
2021/09/19 10:21:31;;;;;;;4.20;3.03;;;17.40;99.90;;;;;;4998381;28;20692;-79
2021/09/19 10:23:57;;;;;;;3.23;2.93;;;17.50;99.90;;;;;;4983587;28;20196;-79
2021/09/19 10:26:23;;;;;;;2.70;2.50;;;17.50;99.90;;;;;;4996271;28;20180;-78
2021/09/19 10:28:52;;;;;;;5.43;2.40;;;17.50;99.90;;;;;;5014758;28;20179;-77
2021/09/19 10:31:23;;;;;;;3.17;2.40;;;17.60;99.90;;;;;;4983543;28;20239;-79
2021/09/19 10:34:05;;;;;;;3.37;2.37;;;17.70;99.90;;;;;;4997765;28;20199;-78
2021/09/19 10:36:53;;;;;;;3.77;2.93;;;17.80;99.90;;;;;;4983615;28;20163;-80
2021/09/19 10:39:19;;;;;;;2.50;2.30;;;17.80;99.90;;;;;;4999562;28;20254;-80
2021/09/19 10:42:10;;;;;;;3.03;2.30;;;17.80;99.90;;;;;;5015682;28;20210;-78
2021/09/19 10:44:56;;;;;;;3.70;2.43;;;17.80;99.90;;;;;;5011173;28;20199;-80
2021/09/19 10:47:35;;;;;;;2.70;2.50;;;18.00;99.90;;;;;;5014214;28;20187;-79
2021/09/19 10:50:21;;;;;;;2.70;2.30;;;18.10;99.90;;;;;;4998527;28;20178;-79
2021/09/19 10:52:48;;;;;;;2.77;2.50;;;18.20;99.90;;;;;;5016104;28;20206;-79
2021/09/19 10:55:27;;;;;;;3.67;2.50;;;18.20;99.90;;;;;;4998740;28;20218;-82
2021/09/19 10:57:58;;;;;;;2.47;2.27;;;18.10;99.90;;;;;;4998857;28;20218;-77
2021/09/19 11:00:24;;;;;;;3.43;2.10;;;18.00;99.90;;;;;;4997618;28;20262;-78
2021/09/19 11:03:07;;;;;;;2.73;1.97;;;18.10;99.90;;;;;;5014353;28;20180;-79
2021/09/19 11:05:53;;;;;;;2.03;1.87;;;18.10;99.90;;;;;;5012894;28;20180;-75
2021/09/19 11:08:18;;;;;;;2.87;1.50;;;18.10;99.90;;;;;;5012964;28;20213;-77
2021/09/19 11:10:56;;;;;;;2.03;1.70;;;18.10;99.90;;;;;;5011315;28;20703;-74
2021/09/19 11:13:27;;;;;;;2.67;1.40;;;18.10;99.90;;;;;;5007122;28;20287;-81
2021/09/19 11:16:01;;;;;;;1.80;1.50;;;18.00;99.90;;;;;;4961686;28;20168;-78
2021/09/19 11:18:47;;;;;;;1.97;1.57;;;18.00;99.90;;;;;;5009459;28;20191;-78
2021/09/19 11:21:32;;;;;;;2.60;1.70;;;17.90;99.90;;;;;;5010914;28;20786;-82
2021/09/19 11:24:14;;;;;;;2.67;1.70;;;17.90;99.90;;;;;;4978526;28;20283;-80
2021/09/19 11:26:52;;;;;;;1.70;1.60;;;17.90;99.90;;;;;;4978756;28;20172;-79
2021/09/19 11:29:23;;;;;;;3.77;2.00;;;17.80;99.90;;;;;;4962388;28;20184;-78
2021/09/19 11:31:49;;;;;;;2.03;1.80;;;17.80;99.90;;;;;;4963022;28;20267;-80
2021/09/19 11:34:23;;;;;;;2.40;1.90;;;17.70;99.90;;;;;;4978305;28;20298;-79
2021/09/19 11:36:54;;;;;;;3.47;1.80;;;17.60;99.90;;;;;;4962737;28;20173;-79
2021/09/19 11:39:20;;;;;;;2.83;1.60;;;17.50;99.90;;;;;;4998704;28;20668;-80
2021/09/19 11:41:46;;;;;;;1.50;1.40;;;17.50;99.90;;;;;;4997149;28;20180;-80
2021/09/19 11:44:12;;;;;;;1.97;1.50;;;17.50;99.90;;;;;;4982219;28;20249;-81
2021/09/19 11:46:45;;;;;;;2.80;1.63;;;17.50;99.90;;;;;;5014519;28;20258;-78
2021/09/19 11:49:11;;;;;;;1.93;1.63;;;17.50;99.90;;;;;;4998890;28;20651;-81
2021/09/19 11:51:38;;;;;;;2.57;1.50;;;17.50;99.90;;;;;;4983946;28;20186;-79
2021/09/19 11:54:03;;;;;;;1.50;1.40;;;17.50;99.90;;;;;;4983020;28;20598;-80
2021/09/19 11:56:30;;;;;;;3.67;1.60;;;17.50;99.90;;;;;;4979473;28;20176;-81
2021/09/19 11:58:56;;;;;;;3.50;1.60;;;17.40;99.90;;;;;;4980146;28;20235;-80
2021/09/19 12:01:23;;;;;;;1.53;1.43;;;17.40;99.90;;;;;;4962497;28;20220;-81
2021/09/19 12:03:48;;;;;;;2.57;1.60;;;17.30;99.90;;;;;;4962973;28;20632;-78
2021/09/19 12:06:14;;;;;;;3.13;1.93;;;17.20;99.90;;;;;;4963950;28;20187;-79
2021/09/19 12:08:41;;;;;;;3.27;1.70;;;17.30;99.90;;;;;;4998200;28;20252;-81
2021/09/19 12:11:07;;;;;;;2.50;1.83;;;17.20;99.90;;;;;;4981917;28;20188;-77
2021/09/19 12:13:34;;;;;;;2.93;1.80;;;17.30;99.90;;;;;;5014117;28;20706;-77
2021/09/19 12:16:10;;;;;;;2.53;1.90;;;17.30;99.90;;;;;;5013472;28;20246;-79
2021/09/19 12:18:40;;;;;;;4.07;1.90;;;17.40;99.90;;;;;;4981600;28;20660;-76
2021/09/19 12:21:10;;;;;;;2.50;2.10;;;17.40;99.90;;;;;;4999851;28;20262;-79
2021/09/19 12:23:55;;;;;;;3.03;1.80;;;17.40;99.90;;;;;;5014486;28;20196;-78
2021/09/19 12:26:31;;;;;;;3.37;1.80;;;17.40;99.90;;;;;;5015852;28;20176;-77
2021/09/19 12:29:08;;;;;;;3.33;1.90;;;17.50;99.90;;;;;;4983027;28;20192;-76
2021/09/19 12:31:40;;;;;;;4.27;1.97;;;17.50;99.90;;;;;;4986767;28;20214;-78
2021/09/19 12:34:10;;;;;;;2.27;2.07;;;17.60;99.90;;;;;;5018109;28;20583;-78
2021/09/19 12:36:45;;;;;;;3.63;1.97;;;17.60;99.90;;;;;;5017757;28;20172;-78
2021/09/19 12:39:22;;;;;;;2.37;1.80;;;17.70;99.90;;;;;;5000985;28;20185;-78
2021/09/19 12:42:01;;;;;;;4.43;2.00;;;17.80;99.90;;;;;;4999132;28;20163;-74
2021/09/19 12:44:28;;;;;;;3.30;2.20;;;17.80;99.90;;;;;;5015842;28;20239;-78
2021/09/19 12:46:57;;;;;;;2.40;1.90;;;17.90;99.90;;;;;;5000132;28;20191;-78
2021/09/19 12:49:23;;;;;;;2.33;2.13;;;18.00;99.90;;;;;;5000219;28;20591;-79